Time;durP1;ratioP1;P1;durP2;ratioP2;P2;SDS_P1;SDS_P2;PMS_P1;PMS_P2;Temp;Humidity;BMP_temperature;BMP_pressure;BME280_temperature;BME280_humidity;BME280_pressure;Samples;Min_cycle;Max_cycle;Signal;HPM_P1;HPM_P2
2021/11/02 00:01:30;;;;;;;2.33;1.17;;;26.40;77.40;;;;;;5035357;28;20056;-69
2021/11/02 00:03:57;;;;;;;2.33;1.08;;;26.40;78.90;;;;;;5037390;28;20021;-69
2021/11/02 00:06:24;;;;;;;7.82;2.08;;;26.40;77.00;;;;;;5036728;28;20021;-71
2021/11/02 00:08:51;;;;;;;3.95;0.93;;;26.50;77.20;;;;;;5034231;28;20110;-67
2021/11/02 00:11:17;;;;;;;4.70;1.13;;;26.30;75.60;;;;;;5035269;28;20025;-67
2021/11/02 00:13:48;;;;;;;5.10;2.38;;;26.30;74.20;;;;;;5036680;28;20022;-70
2021/11/02 00:16:19;;;;;;;5.18;2.13;;;26.10;76.00;;;;;;5038459;28;20036;-67
2021/11/02 00:21:41;;;;;;;4.57;0.98;;;26.30;75.60;;;;;;5038724;28;20075;-69
2021/11/02 00:24:12;;;;;;;3.58;0.95;;;26.70;71.20;;;;;;5034629;28;20018;-68
2021/11/02 00:26:39;;;;;;;2.50;0.70;;;26.70;71.60;;;;;;5035559;28;20047;-69
2021/11/02 00:29:07;;;;;;;3.05;1.17;;;26.30;74.90;;;;;;5037420;28;20025;-71
2021/11/02 00:31:35;;;;;;;3.95;1.13;;;26.20;76.30;;;;;;5041248;28;20030;-70
2021/11/02 00:34:02;;;;;;;2.58;0.93;;;26.10;75.00;;;;;;5036662;28;20075;-68
2021/11/02 00:36:30;;;;;;;5.35;2.33;;;26.00;74.40;;;;;;5041852;28;20014;-70
2021/11/02 00:38:57;;;;;;;4.35;1.50;;;25.90;74.60;;;;;;5043393;28;20147;-68
2021/11/02 00:41:24;;;;;;;1.92;0.68;;;25.90;72.60;;;;;;5040916;28;20036;-67
2021/11/02 00:43:52;;;;;;;4.18;0.80;;;25.90;69.40;;;;;;5039483;28;20051;-69
2021/11/02 00:46:25;;;;;;;3.10;0.93;;;25.80;70.60;;;;;;5041357;28;20426;-68
2021/11/02 00:48:52;;;;;;;4.95;1.38;;;25.80;70.70;;;;;;5043957;28;20078;-70
2021/11/02 00:51:18;;;;;;;2.83;0.80;;;25.80;71.20;;;;;;5040583;28;20691;-69
2021/11/02 00:53:45;;;;;;;2.45;0.90;;;25.80;68.50;;;;;;5096335;22;20055;-70
2021/11/02 00:56:12;;;;;;;2.25;0.65;;;25.70;68.70;;;;;;5060294;28;20471;-67
2021/11/02 00:58:40;;;;;;;1.45;0.60;;;25.60;68.00;;;;;;5060199;28;20551;-70
2021/11/02 01:01:07;;;;;;;2.55;0.68;;;25.40;67.20;;;;;;5062366;28;20779;-70
2021/11/02 01:03:34;;;;;;;4.07;0.73;;;25.80;67.80;;;;;;5059452;28;20028;-70
2021/11/02 01:06:01;;;;;;;2.22;0.70;;;25.90;65.60;;;;;;5061048;28;20628;-67
2021/11/02 01:08:28;;;;;;;4.68;0.90;;;25.90;67.80;;;;;;5061308;28;20044;-69
2021/11/02 01:10:55;;;;;;;0.77;0.50;;;26.30;67.40;;;;;;5062610;28;20040;-71
2021/11/02 01:13:23;;;;;;;3.28;0.88;;;27.20;63.60;;;;;;5062122;28;20025;-68
2021/11/02 01:15:50;;;;;;;3.08;0.60;;;27.40;60.10;;;;;;5061118;28;20084;-68
2021/11/02 01:18:17;;;;;;;2.55;0.50;;;27.40;61.80;;;;;;5063543;28;20226;-70
2021/11/02 01:20:44;;;;;;;6.78;4.13;;;27.30;59.90;;;;;;5061775;28;20016;-68
2021/11/02 01:23:12;;;;;;;8.85;4.20;;;26.90;63.50;;;;;;5060614;28;20029;-71
2021/11/02 01:25:39;;;;;;;2.20;0.95;;;26.50;65.30;;;;;;5061782;28;20387;-68
2021/11/02 01:28:07;;;;;;;3.20;1.10;;;26.40;64.70;;;;;;5062344;28;20078;-67
2021/11/02 01:30:33;;;;;;;2.10;0.90;;;26.60;63.80;;;;;;5058929;28;20025;-67
2021/11/02 01:33:00;;;;;;;2.22;0.90;;;26.60;62.40;;;;;;5057771;28;20012;-67
2021/11/02 01:35:28;;;;;;;58.67;43.45;;;26.20;64.20;;;;;;5061686;28;21436;-70
2021/11/02 01:37:55;;;;;;;3.53;1.10;;;26.00;66.00;;;;;;5059730;28;20028;-69
2021/11/02 01:40:22;;;;;;;4.50;1.35;;;25.90;64.70;;;;;;5059562;28;20061;-69
2021/11/02 01:42:50;;;;;;;2.25;0.85;;;26.10;63.10;;;;;;5060471;28;20514;-69
2021/11/02 01:45:17;;;;;;;6.53;1.00;;;26.20;64.40;;;;;;5063916;28;20094;-71
2021/11/02 01:47:46;;;;;;;1.52;0.50;;;26.40;63.20;;;;;;5058764;28;20116;-68
2021/11/02 01:50:14;;;;;;;2.28;0.88;;;26.30;63.50;;;;;;5058272;28;20028;-68
2021/11/02 01:52:43;;;;;;;2.83;0.82;;;26.30;63.40;;;;;;5057346;28;20108;-70
2021/11/02 01:55:12;;;;;;;4.00;0.93;;;26.30;62.60;;;;;;5056094;28;20052;-69
2021/11/02 01:57:44;;;;;;;1.83;0.82;;;26.10;63.10;;;;;;5049746;28;20024;-68
2021/11/02 02:00:13;;;;;;;;;;;26.00;62.50;;;;;;5050050;28;20040;-69
2021/11/02 02:03:02;;;;;;;4.22;1.00;;;25.90;64.20;;;;;;5048467;28;19913;-68
2021/11/02 02:05:51;;;;;;;2.95;0.73;;;25.70;64.30;;;;;;5049029;28;20017;-70
2021/11/02 02:08:23;;;;;;;3.58;0.88;;;25.80;65.60;;;;;;5047231;28;20372;-68
2021/11/02 02:11:10;;;;;;;3.95;0.75;;;26.20;64.30;;;;;;5049199;28;20048;-69
2021/11/02 02:13:57;;;;;;;1.90;0.60;;;26.40;62.60;;;;;;5048726;28;20363;-67
2021/11/02 02:16:44;;;;;;;2.47;0.63;;;26.50;65.30;;;;;;5049960;28;20013;-69
2021/11/02 02:19:45;;;;;;;3.65;1.15;;;26.60;66.40;;;;;;5049169;28;20033;-67
2021/11/02 02:22:34;;;;;;;3.80;0.60;;;26.80;62.80;;;;;;5048036;28;20039;-67
2021/11/02 02:25:18;;;;;;;3.55;0.50;;;26.90;61.60;;;;;;5049310;28;20125;-68
2021/11/02 02:28:06;;;;;;;2.90;0.90;;;26.90;60.80;;;;;;5049662;28;20021;-71
2021/11/02 02:30:37;;;;;;;3.05;0.47;;;26.90;61.40;;;;;;5048924;28;20043;-69
2021/11/02 02:33:04;;;;;;;2.08;0.70;;;26.80;63.00;;;;;;5048744;28;20099;-67
2021/11/02 02:35:33;;;;;;;1.60;0.43;;;26.90;60.90;;;;;;4349007;28;10000797;-69
2021/11/02 02:38:02;;;;;;;2.03;0.43;;;27.40;63.50;;;;;;5046415;28;20274;-69
2021/11/02 02:40:30;;;;;;;3.88;0.63;;;28.60;58.90;;;;;;5046344;28;20025;-68
2021/11/02 02:42:59;;;;;;;0.52;0.45;;;29.30;55.20;;;;;;5046594;28;20060;-68
2021/11/02 02:45:27;;;;;;;2.33;0.80;;;28.40;57.00;;;;;;5046179;28;20029;-70
2021/11/02 02:47:54;;;;;;;2.55;0.63;;;27.70;58.40;;;;;;5045055;28;20118;-67
2021/11/02 02:50:24;;;;;;;2.40;0.57;;;27.10;59.30;;;;;;5045802;28;20155;-66
2021/11/02 02:52:52;;;;;;;3.83;0.70;;;26.20;61.30;;;;;;5046098;28;20029;-67
2021/11/02 02:55:21;;;;;;;2.03;0.52;;;25.90;63.40;;;;;;5046073;28;20028;-67
2021/11/02 02:57:49;;;;;;;3.25;0.80;;;25.70;65.70;;;;;;5045677;28;20020;-67
2021/11/02 03:00:18;;;;;;;2.03;0.70;;;25.80;65.50;;;;;;5045733;28;20017;-67
2021/11/02 03:02:46;;;;;;;2.63;1.08;;;25.90;63.30;;;;;;5045760;28;20056;-68
2021/11/02 03:05:15;;;;;;;2.33;1.00;;;25.50;63.50;;;;;;5045424;28;20033;-67
2021/11/02 03:07:42;;;;;;;3.72;2.70;;;25.30;64.30;;;;;;5045742;28;20388;-67
2021/11/02 03:10:11;;;;;;;2.97;0.60;;;25.40;65.50;;;;;;5045276;28;20025;-68
2021/11/02 03:12:43;;;;;;;1.95;0.60;;;25.70;63.10;;;;;;5045314;28;20032;-67
2021/11/02 03:18:05;;;;;;;3.47;0.98;;;26.40;62.10;;;;;;5045386;28;20060;-67
2021/11/02 03:43:32;;;;;;;;;;;27.60;58.10;;;;;;5043280;28;20021;-68
2021/11/02 03:48:21;;;;;;;1.77;0.70;;;25.50;60.90;;;;;;5042880;28;20104;-68
2021/11/02 03:59:18;;;;;;;2.60;1.45;;;26.80;59.60;;;;;;5041915;28;20028;-69
2021/11/02 05:49:07;;;;;;;4.22;0.80;;;26.70;61.30;;;;;;5043308;28;20031;-71
2021/11/02 05:59:24;;;;;;;1.55;0.50;;;27.30;58.90;;;;;;5044662;28;20037;-70
2021/11/02 06:07:33;;;;;;;2.50;0.63;;;28.00;57.50;;;;;;5043904;28;20044;-64
2021/11/02 06:30:14;;;;;;;1.45;0.63;;;28.20;56.70;;;;;;5041530;28;20032;-62
2021/11/02 06:32:47;;;;;;;2.78;0.63;;;28.60;56.50;;;;;;5037999;28;20043;-64
2021/11/02 06:35:27;;;;;;;2.00;0.50;;;29.00;56.50;;;;;;5039364;28;20597;-61
2021/11/02 06:49:32;;;;;;;1.00;0.45;;;29.60;55.10;;;;;;5040927;28;20032;-63
2021/11/02 07:19:19;;;;;;;4.00;1.65;;;29.70;54.60;;;;;;5043566;28;20025;-67
2021/11/02 08:47:59;;;;;;;2.80;1.00;;;20.40;99.80;;;;;;5036989;28;20025;-69
2021/11/02 08:50:29;;;;;;;2.88;0.90;;;20.30;99.90;;;;;;5034504;28;21000;-71
2021/11/02 08:52:57;;;;;;;3.50;0.70;;;20.20;99.90;;;;;;5037268;28;20072;-68
2021/11/02 08:55:24;;;;;;;4.75;1.08;;;20.00;99.90;;;;;;5037452;28;20029;-69
2021/11/02 08:57:53;;;;;;;6.25;1.75;;;20.10;99.90;;;;;;5038070;28;20021;-68
2021/11/02 09:00:20;;;;;;;5.13;1.00;;;20.10;99.90;;;;;;5040834;28;20028;-69
2021/11/02 09:02:56;;;;;;;2.58;1.38;;;20.10;99.90;;;;;;5041753;28;20458;-69
2021/11/02 09:05:34;;;;;;;2.92;0.98;;;20.10;99.90;;;;;;5039630;28;20055;-68
2021/11/02 09:08:02;;;;;;;5.78;1.02;;;20.10;99.90;;;;;;5039391;28;20061;-63
2021/11/02 09:10:30;;;;;;;5.68;1.15;;;20.10;99.90;;;;;;5037842;28;20539;-70
2021/11/02 09:12:58;;;;;;;5.22;1.10;;;20.00;99.90;;;;;;5038928;28;21239;-71
2021/11/02 09:15:36;;;;;;;4.95;3.15;;;20.00;99.90;;;;;;5036433;28;20761;-67
2021/11/02 09:18:05;;;;;;;6.20;2.83;;;20.00;99.90;;;;;;5037146;28;20021;-71
2021/11/02 09:20:32;;;;;;;6.00;1.80;;;20.00;99.90;;;;;;5039530;28;20472;-65
2021/11/02 09:23:00;;;;;;;5.22;1.23;;;20.10;99.90;;;;;;5038568;28;20025;-68
2021/11/02 09:25:27;;;;;;;2.80;0.80;;;20.10;99.90;;;;;;5036448;28;20059;-66
2021/11/02 09:27:54;;;;;;;8.68;1.40;;;20.00;99.90;;;;;;5037364;28;20056;-71
2021/11/02 09:30:23;;;;;;;5.20;0.90;;;20.00;99.90;;;;;;5037550;28;20290;-67
2021/11/02 09:32:53;;;;;;;5.80;1.30;;;20.00;99.90;;;;;;5039893;28;20104;-70
2021/11/02 09:35:23;;;;;;;4.85;1.10;;;20.00;99.90;;;;;;5037763;28;20029;-64
2021/11/02 09:38:27;;;;;;;3.63;1.02;;;20.00;99.90;;;;;;5039211;28;20474;-64
2021/11/02 09:41:14;;;;;;;3.72;1.00;;;19.90;99.90;;;;;;5038804;28;20068;-71
2021/11/02 09:44:04;;;;;;;3.63;0.82;;;19.80;99.90;;;;;;5042454;28;20082;-70
2021/11/02 09:47:08;;;;;;;3.50;0.90;;;19.80;99.90;;;;;;5041778;28;20028;-72
2021/11/02 09:49:56;;;;;;;5.10;1.58;;;19.70;99.90;;;;;;5041119;28;20028;-69
2021/11/02 09:53:00;;;;;;;3.83;1.00;;;19.60;99.90;;;;;;5040617;28;20029;-72
2021/11/02 09:55:33;;;;;;;4.60;1.83;;;19.50;99.90;;;;;;5038144;28;20170;-64
2021/11/02 09:58:14;;;;;;;5.00;1.40;;;19.40;99.90;;;;;;5036822;28;20030;-64
2021/11/02 10:01:03;;;;;;;5.47;1.27;;;19.30;99.90;;;;;;5036939;28;20442;-64
2021/11/02 10:03:53;;;;;;;5.53;1.58;;;19.30;99.90;;;;;;5039889;28;20171;-64
2021/11/02 10:06:37;;;;;;;4.10;1.70;;;19.20;99.90;;;;;;5039738;28;20108;-67
2021/11/02 10:09:09;;;;;;;6.10;1.38;;;19.10;99.90;;;;;;5041267;28;20144;-70
2021/11/02 10:12:13;;;;;;;4.07;1.03;;;19.20;99.90;;;;;;5042891;28;20108;-68
2021/11/02 10:15:05;;;;;;;5.43;1.60;;;19.20;99.90;;;;;;5042508;28;20029;-68
2021/11/02 10:17:46;;;;;;;5.55;1.85;;;19.10;99.90;;;;;;5041760;28;20128;-66
2021/11/02 10:20:33;;;;;;;13.75;6.25;;;19.00;99.90;;;;;;5041303;28;20122;-68
2021/11/02 10:23:10;;;;;;;5.93;1.63;;;18.90;99.90;;;;;;5040553;28;20167;-67
2021/11/02 10:26:01;;;;;;;4.13;1.60;;;19.00;99.90;;;;;;5039024;28;20036;-67
2021/11/02 10:28:31;;;;;;;4.63;1.02;;;18.90;99.90;;;;;;5040459;28;20021;-68
2021/11/02 10:31:10;;;;;;;4.80;1.05;;;18.90;99.90;;;;;;5041559;28;20434;-70
2021/11/02 10:33:46;;;;;;;4.18;0.90;;;18.80;99.90;;;;;;5040697;28;20031;-70
2021/11/02 10:36:51;;;;;;;3.60;1.38;;;18.70;99.90;;;;;;5038371;28;20391;-71
2021/11/02 10:39:47;;;;;;;5.40;2.72;;;18.60;99.90;;;;;;4689527;28;10000042;-67
2021/11/02 10:42:55;;;;;;;5.28;3.00;;;18.50;99.90;;;;;;5040843;28;20047;-67
2021/11/02 10:45:26;;;;;;;5.97;2.28;;;18.40;99.90;;;;;;5016058;28;20596;-67
2021/11/02 10:47:56;;;;;;;5.63;2.33;;;18.30;99.90;;;;;;5039189;28;20028;-65
2021/11/02 10:50:26;;;;;;;5.53;1.77;;;18.20;99.90;;;;;;5040949;28;20543;-67
2021/11/02 10:52:58;;;;;;;4.35;1.38;;;18.10;99.90;;;;;;5040541;28;20022;-69
2021/11/02 10:55:52;;;;;;;4.30;1.63;;;18.10;99.90;;;;;;5040914;28;20119;-68
2021/11/02 10:58:22;;;;;;;5.35;1.70;;;18.00;99.90;;;;;;5037532;28;20498;-65
2021/11/02 11:00:50;;;;;;;5.28;1.40;;;18.00;99.90;;;;;;5040749;28;20025;-68
2021/11/02 11:03:19;;;;;;;5.93;1.35;;;18.20;99.90;;;;;;5039965;28;20325;-68
2021/11/02 11:06:03;;;;;;;4.50;1.50;;;18.30;99.90;;;;;;5036219;28;20039;-67
2021/11/02 11:08:35;;;;;;;3.88;1.50;;;18.20;99.90;;;;;;5037110;28;20021;-66
2021/11/02 11:11:11;;;;;;;6.13;1.52;;;18.30;99.90;;;;;;5039709;28;20045;-66
2021/11/02 11:13:39;;;;;;;4.38;1.65;;;18.10;99.90;;;;;;5038796;28;20060;-65
2021/11/02 11:16:18;;;;;;;4.10;1.10;;;18.00;99.90;;;;;;5039061;28;20103;-70
2021/11/02 11:19:06;;;;;;;2.28;0.93;;;17.90;99.90;;;;;;5038985;28;20047;-64
2021/11/02 11:21:38;;;;;;;4.78;1.23;;;17.80;99.90;;;;;;5042278;28;20029;-68
2021/11/02 11:24:10;;;;;;;4.45;1.25;;;17.70;99.90;;;;;;5037225;28;20043;-70
2021/11/02 11:26:47;;;;;;;3.70;1.20;;;17.60;99.90;;;;;;5041570;28;20024;-65
2021/11/02 11:29:25;;;;;;;4.22;1.40;;;17.70;99.90;;;;;;5040795;28;20095;-65
2021/11/02 11:31:55;;;;;;;9.07;1.70;;;17.80;99.90;;;;;;5038423;28;20195;-66
2021/11/02 11:34:33;;;;;;;4.38;1.30;;;17.80;99.90;;;;;;5039961;28;20497;-66
2021/11/02 11:37:06;;;;;;;6.18;1.30;;;17.80;99.90;;;;;;5035674;28;20044;-70
2021/11/02 11:39:34;;;;;;;4.88;1.75;;;17.70;99.90;;;;;;5040156;28;20087;-66
2021/11/02 11:42:01;;;;;;;5.43;1.77;;;17.60;99.90;;;;;;5038141;28;20436;-66
2021/11/02 11:44:29;;;;;;;5.90;1.50;;;17.50;99.90;;;;;;5041280;28;20028;-70
2021/11/02 11:47:08;;;;;;;4.72;1.65;;;17.50;99.90;;;;;;5038895;28;20025;-67
2021/11/02 11:49:37;;;;;;;11.63;1.60;;;17.50;99.90;;;;;;5041759;28;20075;-68
2021/11/02 11:52:07;;;;;;;7.85;1.42;;;17.50;99.90;;;;;;5042034;28;20060;-67
2021/11/02 11:54:53;;;;;;;5.18;1.73;;;17.50;99.90;;;;;;5042866;28;20044;-70
2021/11/02 11:57:32;;;;;;;6.07;1.63;;;17.40;99.90;;;;;;5041695;28;20051;-66
2021/11/02 12:00:05;;;;;;;3.45;1.33;;;17.30;99.90;;;;;;5038764;28;20692;-70
2021/11/02 12:02:33;;;;;;;4.00;1.15;;;17.30;99.90;;;;;;5041844;28;20025;-64
2021/11/02 12:05:04;;;;;;;4.97;1.25;;;17.20;99.90;;;;;;5042762;28;20130;-69
2021/11/02 12:07:37;;;;;;;4.03;1.38;;;17.20;99.90;;;;;;5041539;28;20028;-63
2021/11/02 12:10:08;;;;;;;6.55;1.90;;;17.10;99.90;;;;;;5038996;28;20143;-66
2021/11/02 12:12:38;;;;;;;3.97;1.17;;;17.10;99.90;;;;;;5040172;28;20021;-65
2021/11/02 12:15:17;;;;;;;4.65;1.30;;;17.10;99.90;;;;;;5041990;28;20043;-66
2021/11/02 12:17:49;;;;;;;3.97;1.45;;;17.00;99.90;;;;;;5040426;28;20090;-66
2021/11/02 12:20:17;;;;;;;6.97;1.65;;;17.00;99.90;;;;;;5040667;28;20039;-69
2021/11/02 12:22:52;;;;;;;6.60;1.52;;;17.10;99.90;;;;;;5040897;28;20021;-66
2021/11/02 12:25:28;;;;;;;4.78;1.52;;;17.00;99.90;;;;;;5038298;28;20032;-67
2021/11/02 12:27:56;;;;;;;3.90;1.27;;;16.90;99.90;;;;;;5039102;28;20037;-67
2021/11/02 12:30:24;;;;;;;6.88;1.42;;;16.90;99.90;;;;;;5040066;28;20028;-67
2021/11/02 12:32:56;;;;;;;3.17;1.35;;;16.90;99.90;;;;;;5043961;28;20030;-70
2021/11/02 12:35:35;;;;;;;6.93;1.30;;;16.90;99.90;;;;;;5041710;28;20040;-68
2021/11/02 12:38:05;;;;;;;9.20;2.35;;;16.80;99.90;;;;;;5043566;28;20029;-69
2021/11/02 12:40:35;;;;;;;3.30;1.48;;;16.80;99.90;;;;;;5042982;28;20059;-67
2021/11/02 12:43:03;;;;;;;5.30;1.40;;;16.70;99.90;;;;;;5043364;28;20029;-67
2021/11/02 12:45:39;;;;;;;4.60;1.80;;;16.70;99.90;;;;;;5043943;28;20032;-69
2021/11/02 12:48:10;;;;;;;6.47;1.35;;;16.70;99.90;;;;;;5043703;28;20506;-67
2021/11/02 12:50:39;;;;;;;5.72;1.60;;;16.60;99.90;;;;;;5042657;28;20017;-66
2021/11/02 12:53:09;;;;;;;6.35;1.60;;;16.50;99.90;;;;;;5050868;22;20308;-70
2021/11/02 12:55:37;;;;;;;7.05;1.58;;;16.50;99.90;;;;;;5043771;28;20513;-70
2021/11/02 12:58:15;;;;;;;5.03;1.27;;;16.50;99.90;;;;;;5041822;28;20017;-68
2021/11/02 13:00:58;;;;;;;4.18;1.48;;;16.50;99.90;;;;;;5042211;28;20559;-69
2021/11/02 13:03:31;;;;;;;7.50;1.50;;;16.50;99.90;;;;;;5043735;28;20021;-69
2021/11/02 13:06:06;;;;;;;6.88;1.60;;;16.50;99.90;;;;;;5040921;28;20449;-70
2021/11/02 13:08:41;;;;;;;10.10;2.03;;;16.40;99.90;;;;;;5043951;28;20446;-68
2021/11/02 13:11:18;;;;;;;8.88;1.80;;;16.40;99.90;;;;;;5042676;28;20025;-67
2021/11/02 13:14:10;;;;;;;6.28;1.30;;;16.40;99.90;;;;;;5042243;28;20025;-68
2021/11/02 13:16:57;;;;;;;3.38;1.33;;;16.50;99.90;;;;;;5041231;28;20417;-67
2021/11/02 13:19:34;;;;;;;6.28;1.25;;;16.40;99.90;;;;;;5043476;28;20025;-67
2021/11/02 13:22:31;;;;;;;5.30;1.42;;;16.30;99.90;;;;;;5042174;28;20033;-70
2021/11/02 13:25:05;;;;;;;3.03;1.25;;;16.20;99.90;;;;;;5033675;28;20051;-66
2021/11/02 13:27:43;;;;;;;4.45;1.17;;;16.10;99.90;;;;;;5042461;28;20475;-67
2021/11/02 13:30:39;;;;;;;4.82;1.23;;;16.10;99.90;;;;;;5043126;28;20108;-68
2021/11/02 13:33:14;;;;;;;5.60;1.30;;;16.20;99.90;;;;;;5043118;28;20035;-70
2021/11/02 13:36:00;;;;;;;4.80;1.63;;;16.10;99.90;;;;;;5042323;28;20510;-67
2021/11/02 13:38:31;;;;;;;2.55;1.15;;;16.10;99.90;;;;;;5041733;28;20048;-69
2021/11/02 13:41:04;;;;;;;7.88;1.40;;;16.00;99.90;;;;;;5042679;28;20415;-70
2021/11/02 13:43:39;;;;;;;4.25;1.25;;;15.90;99.90;;;;;;5041344;28;20459;-66
2021/11/02 13:46:12;;;;;;;5.30;1.25;;;15.80;99.90;;;;;;5039723;28;20395;-68
2021/11/02 13:48:40;;;;;;;2.90;1.75;;;15.70;99.90;;;;;;5042810;28;20029;-68
2021/11/02 13:51:13;;;;;;;4.15;1.40;;;15.60;99.90;;;;;;5042454;28;20029;-70
2021/11/02 13:53:40;;;;;;;;;;;15.60;99.90;;;;;;5043066;28;20044;-66
2021/11/02 13:56:18;;;;;;;4.40;1.27;;;15.60;99.90;;;;;;5042233;28;19924;-66
2021/11/02 13:58:46;;;;;;;4.68;1.20;;;15.70;99.90;;;;;;5042051;28;20047;-70
2021/11/02 14:01:38;;;;;;;8.88;1.65;;;15.70;99.90;;;;;;5041829;28;20033;-69
2021/11/02 14:04:33;;;;;;;4.20;1.80;;;15.70;99.90;;;;;;5043299;28;20024;-67
2021/11/02 14:07:05;;;;;;;5.68;1.40;;;15.60;99.90;;;;;;5043405;28;20021;-67
2021/11/02 14:09:39;;;;;;;3.17;1.33;;;15.50;99.90;;;;;;5042796;28;20048;-69
2021/11/02 14:12:28;;;;;;;3.40;1.27;;;15.50;99.90;;;;;;5042207;28;20155;-67
2021/11/02 14:15:18;;;;;;;3.05;1.20;;;15.40;99.90;;;;;;5044524;28;20033;-69
2021/11/02 14:18:14;;;;;;;4.82;2.08;;;15.30;99.90;;;;;;5044264;28;20410;-67
2021/11/02 14:20:51;;;;;;;5.78;1.73;;;15.20;99.90;;;;;;5045193;28;20120;-67
2021/11/02 14:23:39;;;;;;;6.55;1.63;;;15.30;99.90;;;;;;5045168;28;20250;-66
2021/11/02 14:26:58;;;;;;;3.75;1.50;;;15.40;99.90;;;;;;5039456;28;20502;-69
2021/11/02 14:29:18;;;;;;;6.15;1.60;;;15.40;99.90;;;;;;5042486;28;20049;-67
2021/11/02 14:31:46;;;;;;;5.32;1.40;;;15.30;99.90;;;;;;5045589;28;20032;-66
2021/11/02 14:34:39;;;;;;;10.27;1.58;;;15.30;99.90;;;;;;5045514;28;20021;-69
2021/11/02 14:37:25;;;;;;;5.53;1.67;;;15.30;99.90;;;;;;5040646;28;20507;-70
2021/11/02 14:40:11;;;;;;;4.75;1.90;;;15.30;99.90;;;;;;5045563;28;20090;-67
2021/11/02 14:42:47;;;;;;;7.25;2.10;;;15.30;99.90;;;;;;5045610;28;20800;-67
2021/11/02 14:45:19;;;;;;;7.30;1.58;;;15.40;99.90;;;;;;5043877;28;20029;-69
2021/11/02 14:47:47;;;;;;;5.88;2.03;;;15.30;99.90;;;;;;5044079;28;20677;-67
2021/11/02 14:50:32;;;;;;;2.97;1.17;;;15.30;99.90;;;;;;5044991;28;20032;-67
2021/11/02 14:53:27;;;;;;;7.43;2.00;;;15.10;99.90;;;;;;5045264;28;20377;-69
2021/11/02 14:55:56;;;;;;;5.78;1.52;;;15.00;99.90;;;;;;5045449;28;20075;-68
2021/11/02 14:58:52;;;;;;;7.18;1.88;;;15.00;99.90;;;;;;5044267;28;20029;-67
2021/11/02 15:02:05;;;;;;;3.60;1.40;;;15.00;99.90;;;;;;5041971;28;20570;-69
2021/11/02 15:04:34;;;;;;;5.18;1.58;;;14.90;99.90;;;;;;5044422;28;20052;-69
2021/11/02 15:07:02;;;;;;;7.72;2.03;;;14.90;99.90;;;;;;5043639;28;20090;-67
2021/11/02 15:09:36;;;;;;;4.00;1.70;;;15.10;99.90;;;;;;5043948;28;20068;-67
2021/11/02 15:12:05;;;;;;;4.22;1.45;;;15.10;99.90;;;;;;5044630;28;20031;-67
2021/11/02 15:14:35;;;;;;;3.17;1.40;;;15.10;99.90;;;;;;5044316;28;20029;-70
2021/11/02 15:17:05;;;;;;;4.38;1.30;;;15.10;99.90;;;;;;5043619;28;20029;-70
2021/11/02 15:19:36;;;;;;;4.88;1.60;;;15.20;99.90;;;;;;5045463;28;20471;-69
2021/11/02 15:22:08;;;;;;;4.05;1.60;;;15.20;99.90;;;;;;5042697;28;20021;-71
2021/11/02 15:24:38;;;;;;;4.15;1.25;;;15.30;99.90;;;;;;5042544;28;20118;-69
2021/11/02 15:27:26;;;;;;;4.65;1.65;;;15.30;99.90;;;;;;5043207;28;20029;-68
2021/11/02 15:29:58;;;;;;;4.90;1.30;;;15.30;99.90;;;;;;5043458;28;20029;-69
2021/11/02 15:32:28;;;;;;;3.60;1.50;;;15.30;99.90;;;;;;5044389;28;20090;-68
2021/11/02 15:35:03;;;;;;;3.97;1.30;;;15.30;99.90;;;;;;5044302;28;20033;-70
2021/11/02 15:37:37;;;;;;;6.95;1.58;;;15.30;99.90;;;;;;5044354;28;20079;-70
2021/11/02 15:40:12;;;;;;;5.68;1.60;;;15.20;99.90;;;;;;5043350;28;20547;-70
2021/11/02 15:42:39;;;;;;;8.63;1.42;;;15.10;99.90;;;;;;5043971;28;20099;-70
2021/11/02 15:45:30;;;;;;;6.30;1.65;;;15.10;99.90;;;;;;5043760;28;20120;-68
2021/11/02 15:48:13;;;;;;;6.60;2.30;;;15.00;99.90;;;;;;5042657;28;20443;-68
2021/11/02 15:50:51;;;;;;;10.57;1.83;;;15.10;99.90;;;;;;5043634;28;20025;-69
2021/11/02 15:53:27;;;;;;;8.38;2.33;;;15.00;99.90;;;;;;5044134;28;20105;-68
2021/11/02 15:55:59;;;;;;;9.90;1.80;;;15.00;99.90;;;;;;5042348;28;20033;-69
2021/11/02 15:58:28;;;;;;;7.18;2.00;;;15.00;99.90;;;;;;5043518;28;20056;-69
2021/11/02 16:00:55;;;;;;;6.95;1.98;;;15.00;99.90;;;;;;5043006;28;20444;-70
2021/11/02 16:03:31;;;;;;;6.22;1.83;;;14.90;99.90;;;;;;5043077;28;20698;-68
2021/11/02 16:05:58;;;;;;;3.80;1.73;;;14.80;99.90;;;;;;5045502;28;20033;-68
2021/11/02 16:08:25;;;;;;;7.28;2.45;;;14.70;99.90;;;;;;5047658;28;20360;-69
2021/11/02 16:11:12;;;;;;;5.22;2.42;;;14.60;99.90;;;;;;5047456;28;20402;-71
2021/11/02 16:13:42;;;;;;;4.32;1.58;;;14.50;99.90;;;;;;5045776;28;20120;-71
2021/11/02 16:16:10;;;;;;;4.90;2.13;;;14.40;99.90;;;;;;5046096;28;20434;-71
2021/11/02 16:18:38;;;;;;;5.03;1.52;;;14.30;99.90;;;;;;5047642;28;20021;-68
2021/11/02 16:21:07;;;;;;;6.93;1.92;;;14.20;99.90;;;;;;5047195;28;20443;-70
2021/11/02 16:23:44;;;;;;;4.68;1.65;;;14.20;99.90;;;;;;5045202;28;20017;-68
2021/11/02 16:26:16;;;;;;;5.80;2.33;;;14.10;99.90;;;;;;5046744;28;20484;-69
2021/11/02 16:28:43;;;;;;;7.72;2.00;;;14.10;99.90;;;;;;5044919;28;20032;-69
2021/11/02 16:31:22;;;;;;;5.75;2.05;;;14.10;99.90;;;;;;5046089;28;20052;-68
2021/11/02 16:33:50;;;;;;;4.88;1.60;;;14.10;99.90;;;;;;5047155;28;20387;-71
2021/11/02 16:36:28;;;;;;;5.32;2.13;;;14.00;99.90;;;;;;5046790;28;20025;-68
2021/11/02 16:39:19;;;;;;;4.65;2.05;;;14.10;99.90;;;;;;5047367;28;20100;-71
2021/11/02 16:41:51;;;;;;;6.15;1.95;;;14.00;99.90;;;;;;5046701;28;20596;-70
2021/11/02 16:44:35;;;;;;;;;;;14.00;99.90;;;;;;5047068;28;20024;-68
2021/11/02 16:47:14;;;;;;;6.07;2.65;;;14.00;99.90;;;;;;5046803;28;19919;-70
2021/11/02 16:49:43;;;;;;;9.98;2.60;;;14.00;99.90;;;;;;5046764;28;20047;-70
2021/11/02 16:52:12;;;;;;;3.17;1.75;;;14.10;99.90;;;;;;5047401;28;20066;-70
2021/11/02 16:54:45;;;;;;;5.15;1.40;;;14.10;99.90;;;;;;5046579;28;20045;-70
2021/11/02 16:57:21;;;;;;;4.97;1.77;;;14.20;99.90;;;;;;5044601;28;20466;-70
2021/11/02 16:59:49;;;;;;;4.15;1.63;;;14.20;99.90;;;;;;5046887;28;20099;-68
2021/11/02 17:02:23;;;;;;;6.93;1.90;;;14.20;99.90;;;;;;5044840;28;20060;-70
2021/11/02 17:05:08;;;;;;;3.15;1.40;;;14.20;99.90;;;;;;5046737;28;20025;-68
2021/11/02 17:07:42;;;;;;;4.47;1.65;;;14.20;99.90;;;;;;5047672;28;20147;-70
2021/11/02 17:10:23;;;;;;;5.13;1.80;;;14.30;99.90;;;;;;5045796;28;20033;-71
2021/11/02 17:13:03;;;;;;;5.93;1.85;;;14.40;99.90;;;;;;5046523;28;20024;-68
2021/11/02 17:15:35;;;;;;;3.90;1.42;;;14.50;99.90;;;;;;5046600;28;20494;-71
2021/11/02 17:18:04;;;;;;;5.27;1.90;;;14.50;99.90;;;;;;5046446;28;20043;-67
2021/11/02 17:20:32;;;;;;;8.07;2.25;;;14.40;99.90;;;;;;5045893;28;20254;-67
2021/11/02 17:22:59;;;;;;;5.68;1.90;;;14.30;99.90;;;;;;5046465;28;20028;-70
2021/11/02 17:25:28;;;;;;;7.63;1.80;;;14.30;99.90;;;;;;5044320;28;20025;-70
2021/11/02 17:27:55;;;;;;;2.97;1.52;;;14.30;99.90;;;;;;5045728;28;20025;-68
2021/11/02 17:30:28;;;;;;;5.20;1.30;;;14.40;99.90;;;;;;5046261;28;20032;-70
2021/11/02 17:32:56;;;;;;;5.22;1.60;;;14.30;99.90;;;;;;5046824;28;20535;-68
2021/11/02 17:35:24;;;;;;;4.65;1.88;;;14.30;99.90;;;;;;5046433;28;20381;-71
2021/11/02 17:37:55;;;;;;;3.78;1.13;;;14.30;99.90;;;;;;5045962;28;20017;-68
2021/11/02 17:40:24;;;;;;;5.60;1.83;;;14.30;99.90;;;;;;5047197;28;20059;-68
2021/11/02 17:42:54;;;;;;;3.95;2.00;;;14.20;99.90;;;;;;5045322;28;20036;-71
2021/11/02 17:45:21;;;;;;;8.82;2.20;;;14.10;99.90;;;;;;5046061;28;20036;-71
2021/11/02 17:47:53;;;;;;;4.80;1.77;;;14.10;99.90;;;;;;5045260;28;20493;-71
2021/11/02 17:50:23;;;;;;;4.55;2.05;;;14.20;99.90;;;;;;5046907;28;20087;-70
2021/11/02 17:52:50;;;;;;;5.38;1.70;;;14.20;99.90;;;;;;5046993;28;20475;-68
2021/11/02 17:55:18;;;;;;;4.80;1.67;;;14.20;99.90;;;;;;5046815;28;20039;-68
2021/11/02 17:57:51;;;;;;;5.07;1.85;;;14.10;99.90;;;;;;5044771;28;20035;-70
2021/11/02 18:00:24;;;;;;;6.22;1.83;;;14.10;99.90;;;;;;5045525;28;20030;-69
2021/11/02 18:02:54;;;;;;;;;;;14.20;99.90;;;;;;5046342;28;20055;-68
2021/11/02 18:05:29;;;;;;;5.35;1.70;;;14.10;99.90;;;;;;5045651;28;19988;-70
2021/11/02 18:07:57;;;;;;;7.15;2.42;;;14.10;99.90;;;;;;5046316;28;20025;-71
2021/11/02 18:10:29;;;;;;;5.93;2.38;;;14.20;99.90;;;;;;5046339;28;20032;-71
2021/11/02 18:12:57;;;;;;;4.10;2.15;;;14.30;99.90;;;;;;5046430;28;20033;-71
2021/11/02 18:15:24;;;;;;;6.90;1.85;;;14.40;99.90;;;;;;5046057;28;20159;-68
2021/11/02 18:17:54;;;;;;;4.93;2.05;;;14.30;99.90;;;;;;5046224;28;20040;-68
2021/11/02 18:20:23;;;;;;;5.72;1.67;;;14.30;99.90;;;;;;5045736;28;20060;-70
2021/11/02 18:22:52;;;;;;;5.97;1.95;;;14.30;99.90;;;;;;5045802;28;20024;-71
2021/11/02 18:25:24;;;;;;;5.03;1.42;;;14.30;99.90;;;;;;5043629;28;20510;-71
2021/11/02 18:27:54;;;;;;;3.50;1.50;;;14.30;99.90;;;;;;5044235;28;20028;-68
2021/11/02 18:30:22;;;;;;;6.38;1.70;;;14.20;99.90;;;;;;5033430;28;20084;-68